Time;durP1;ratioP1;P1;durP2;ratioP2;P2;SDS_P1;SDS_P2;PMS_P1;PMS_P2;Temp;Humidity;BMP_temperature;BMP_pressure;BME280_temperature;BME280_humidity;BME280_pressure;Samples;Min_cycle;Max_cycle;Signal;HPM_P1;HPM_P2
2021/10/08 00:00:13;;;;;;;;;4.00;3.00;;;;;21.46;46.02;102398.59;4997117;28;50923;-41
2021/10/08 00:02:40;;;;;;;;;2.00;2.00;;;;;21.46;46.36;102394.97;4992988;28;51584;-40
2021/10/08 00:05:05;;;;;;;;;1.00;1.00;;;;;21.47;45.89;102399.47;5004093;28;51049;-49
2021/10/08 00:07:31;;;;;;;;;4.25;3.00;;;;;21.45;46.23;102390.53;4994785;28;51062;-40
2021/10/08 00:09:56;;;;;;;;;2.00;2.00;;;;;21.45;46.00;102402.41;4996861;28;50981;-41
2021/10/08 00:12:21;;;;;;;;;2.25;2.25;;;;;21.44;45.82;102395.19;5012471;28;50912;-40
2021/10/08 00:14:47;;;;;;;;;3.00;3.00;;;;;21.44;45.81;102402.59;5012623;28;51627;-40
2021/10/08 00:17:12;;;;;;;;;3.25;2.75;;;;;21.45;46.45;102398.78;4998668;28;51116;-40
2021/10/08 00:19:38;;;;;;;;;3.00;3.00;;;;;21.43;45.97;102401.75;5012272;28;51073;-40
2021/10/08 00:22:03;;;;;;;;;2.50;2.50;;;;;21.43;46.51;102400.88;4998035;28;50937;-40
2021/10/08 00:24:29;;;;;;;;;2.00;2.00;;;;;21.43;46.28;102398.13;4996409;28;50946;-41
2021/10/08 00:26:55;;;;;;;;;1.00;1.00;;;;;21.42;46.47;102396.44;4999199;28;51067;-40
2021/10/08 00:29:20;;;;;;;;;3.50;3.50;;;;;21.43;46.36;102395.38;5010614;28;51208;-40
2021/10/08 00:31:45;;;;;;;;;4.50;4.00;;;;;21.42;46.48;102396.44;5002868;28;50946;-40
2021/10/08 00:34:11;;;;;;;;;3.25;2.50;;;;;21.42;46.51;102408.31;5012928;28;52054;-40
2021/10/08 00:36:36;;;;;;;;;4.00;2.25;;;;;21.41;46.52;102406.59;5004208;28;51487;-40
2021/10/08 00:39:03;;;;;;;;;4.25;2.75;;;;;21.41;46.63;102403.00;5009980;28;51055;-39
2021/10/08 00:41:28;;;;;;;;;3.50;3.00;;;;;21.41;46.20;102411.25;4997297;28;51210;-40
2021/10/08 00:43:54;;;;;;;;;3.75;3.00;;;;;21.41;46.78;102406.59;4995921;28;51588;-40
2021/10/08 00:46:20;;;;;;;;;1.50;1.50;;;;;21.41;46.42;102412.13;5004560;28;51233;-40
2021/10/08 00:48:51;;;;;;;;;4.50;4.50;;;;;21.40;46.69;102409.56;4995342;28;51160;-40
2021/10/08 00:51:17;;;;;;;;;5.00;3.25;;;;;21.40;46.24;102406.78;4997401;28;51197;-39
2021/10/08 00:53:42;;;;;;;;;4.25;2.75;;;;;21.40;46.71;102406.78;5001124;28;51244;-40
2021/10/08 00:56:08;;;;;;;;;1.00;1.00;;;;;21.40;46.18;102415.06;5009341;28;51148;-39
2021/10/08 00:58:34;;;;;;;;;5.00;3.75;;;;;21.39;46.33;102410.59;5001526;28;50974;-40
2021/10/08 01:01:00;;;;;;;;;4.00;2.25;;;;;21.38;46.77;102412.50;5013345;28;51333;-40
2021/10/08 01:03:26;;;;;;;;;2.50;2.50;;;;;21.40;46.24;102417.81;5000051;28;50899;-40
2021/10/08 01:05:51;;;;;;;;;5.00;3.25;;;;;21.40;46.31;102420.59;5002791;28;51060;-41
2021/10/08 01:08:17;;;;;;;;;4.00;3.00;;;;;21.38;46.02;102418.03;5017496;28;51025;-40
2021/10/08 01:10:44;;;;;;;;;3.75;3.00;;;;;21.39;46.37;102424.38;5017702;28;51107;-40
2021/10/08 01:13:11;;;;;;;;;5.75;4.00;;;;;21.38;46.56;102417.16;5009621;28;51852;-41
2021/10/08 01:15:37;;;;;;;;;3.50;3.50;;;;;21.37;46.73;102420.97;5001287;28;51434;-40
2021/10/08 01:18:03;;;;;;;;;3.75;3.00;;;;;21.37;46.27;102421.81;5017159;28;52342;-41
2021/10/08 01:20:28;;;;;;;;;4.50;3.75;;;;;21.38;46.27;102417.16;5013238;28;51282;-41
2021/10/08 01:22:57;;;;;;;;;3.00;3.00;;;;;21.38;46.50;102414.41;4999069;28;51652;-47
2021/10/08 01:25:25;;;;;;;;;3.50;3.50;;;;;21.37;46.44;102410.81;5001572;28;51201;-40
2021/10/08 01:27:50;;;;;;;;;5.00;3.00;;;;;21.36;46.41;102411.81;5006763;28;51051;-40
2021/10/08 01:30:16;;;;;;;;;3.00;3.00;;;;;21.36;46.29;102409.06;5015430;28;51025;-40
2021/10/08 01:32:41;;;;;;;;;4.25;3.00;;;;;21.35;46.71;102412.88;5009906;28;51733;-40
2021/10/08 01:35:07;;;;;;;;;3.00;3.00;;;;;21.37;46.51;102412.69;4998973;28;50993;-40
2021/10/08 01:37:32;;;;;;;;;3.50;3.50;;;;;21.35;46.71;102410.09;5009100;28;51145;-40
2021/10/08 01:39:58;;;;;;;;;3.75;3.75;;;;;21.35;46.48;102417.53;5000036;28;51045;-40
2021/10/08 01:42:23;;;;;;;;;3.75;3.75;;;;;21.35;46.30;102420.28;4998720;28;52629;-40
2021/10/08 01:44:49;;;;;;;;;3.00;3.00;;;;;21.35;46.95;102412.00;5011557;28;51009;-40
2021/10/08 01:47:14;;;;;;;;;4.00;3.00;;;;;21.33;46.62;102415.81;5010019;28;51185;-40
2021/10/08 01:49:40;;;;;;;;;2.50;2.50;;;;;21.33;46.42;102418.56;4982409;28;51654;-41
2021/10/08 01:52:06;;;;;;;;;5.25;3.75;;;;;21.34;46.84;102416.66;5002665;28;52112;-40
2021/10/08 01:54:32;;;;;;;;;1.75;1.75;;;;;21.34;46.74;102416.66;5010421;28;51087;-40
2021/10/08 01:56:58;;;;;;;;;2.50;2.50;;;;;21.35;46.87;102423.03;5009072;28;51234;-40
2021/10/08 01:59:23;;;;;;;;;4.00;4.00;;;;;21.33;46.83;102418.56;4998822;28;51308;-40
2021/10/08 02:01:49;;;;;;;;;4.00;3.00;;;;;21.35;46.35;102415.63;5001597;28;51978;-41
2021/10/08 02:04:14;;;;;;;;;4.50;3.00;;;;;21.33;46.36;102415.81;5008082;28;51096;-40
2021/10/08 02:06:39;;;;;;;;;5.25;2.75;;;;;21.33;46.34;102426.84;5005121;28;51060;-41
2021/10/08 02:09:06;;;;;;;;;2.25;2.25;;;;;21.33;46.84;102417.72;5014913;28;51108;-40
2021/10/08 02:11:32;;;;;;;;;2.75;2.75;;;;;21.32;46.55;102416.88;5007349;28;53103;-40
2021/10/08 02:13:58;;;;;;;;;4.50;4.50;;;;;21.32;46.38;102416.00;5004004;28;50999;-40
2021/10/08 02:16:24;;;;;;;;;4.50;3.00;;;;;21.32;46.60;102414.09;5009971;28;50857;-44
2021/10/08 02:18:51;;;;;;;;;5.00;3.00;;;;;21.33;46.98;102415.81;5016611;28;51343;-46
2021/10/08 02:21:19;;;;;;;;;4.50;2.75;;;;;21.33;46.98;102414.97;5017327;28;51832;-40
2021/10/08 02:23:44;;;;;;;;;4.25;3.75;;;;;21.32;46.83;102414.09;5003368;28;51273;-40
2021/10/08 02:26:10;;;;;;;;;3.00;3.00;;;;;21.32;46.61;102410.50;5014506;28;51095;-44
2021/10/08 02:28:35;;;;;;;;;4.25;3.25;;;;;21.31;46.75;102406.88;4998334;28;51093;-40
2021/10/08 02:31:00;;;;;;;;;4.25;3.00;;;;;21.30;46.39;102405.19;5006589;28;51803;-40
2021/10/08 02:33:26;;;;;;;;;4.75;4.75;;;;;21.32;46.55;102413.25;4997984;28;51266;-40
2021/10/08 02:35:51;;;;;;;;;3.50;3.00;;;;;21.31;46.97;102401.38;5005218;28;51063;-40
2021/10/08 02:38:18;;;;;;;;;6.00;4.75;;;;;21.30;47.04;102409.84;5013751;28;51081;-39
2021/10/08 02:40:44;;;;;;;;;2.50;2.50;;;;;21.29;46.78;102411.75;4997574;28;51999;-40
2021/10/08 02:43:11;;;;;;;;;3.25;3.25;;;;;21.29;46.42;102411.75;4981156;28;51423;-38
2021/10/08 02:45:36;;;;;;;;;4.00;4.00;;;;;21.30;46.91;102423.63;5016096;28;50898;-38
2021/10/08 02:48:02;;;;;;;;;4.50;4.00;;;;;21.29;46.45;102417.25;5002874;28;52291;-38
2021/10/08 02:50:28;;;;;;;;;3.75;3.00;;;;;21.29;46.94;102416.41;5005187;28;51854;-38
2021/10/08 02:52:53;;;;;;;;;3.00;2.50;;;;;21.28;46.65;102418.31;5011074;28;51223;-38
2021/10/08 02:55:19;;;;;;;;;4.75;3.00;;;;;21.29;46.64;102413.66;5001360;28;50982;-38
2021/10/08 02:57:44;;;;;;;;;3.00;3.00;;;;;21.28;46.51;102415.53;5013309;28;51254;-38
2021/10/08 03:00:10;;;;;;;;;4.50;3.75;;;;;21.29;46.54;102413.66;5006360;28;51643;-38
2021/10/08 03:02:35;;;;;;;;;3.25;3.00;;;;;21.28;47.04;102411.94;4997748;28;51312;-39
2021/10/08 03:05:01;;;;;;;;;4.75;3.00;;;;;21.27;47.09;102411.09;4995245;28;50969;-38
2021/10/08 03:07:26;;;;;;;;;4.00;3.00;;;;;21.28;46.98;102412.78;4998638;28;51163;-38
2021/10/08 03:09:52;;;;;;;;;3.00;0.50;;;;;21.27;46.78;102413.84;5004252;28;51937;-38
2021/10/08 03:12:17;;;;;;;;;4.25;3.50;;;;;21.28;46.50;102417.44;5007359;28;51078;-38
2021/10/08 03:14:42;;;;;;;;;3.00;3.00;;;;;21.27;46.39;102413.84;5009255;28;51076;-38
2021/10/08 03:17:08;;;;;;;;;3.00;3.00;;;;;21.27;46.86;102410.22;5001815;28;51000;-38
2021/10/08 03:19:33;;;;;;;;;1.75;1.75;;;;;21.28;46.94;102411.94;4997881;28;52302;-38
2021/10/08 03:21:59;;;;;;;;;3.00;3.00;;;;;21.28;46.64;102409.19;4999714;28;51330;-38
2021/10/08 03:24:24;;;;;;;;;4.75;4.25;;;;;21.27;46.41;102411.09;5016894;28;51148;-38
2021/10/08 03:26:50;;;;;;;;;3.00;2.00;;;;;21.26;46.52;102417.66;5011693;28;51231;-38
2021/10/08 03:29:15;;;;;;;;;4.00;4.00;;;;;21.26;46.68;102416.78;5014038;28;51941;-38
2021/10/08 03:31:41;;;;;;;;;3.25;2.75;;;;;21.26;46.71;102419.53;5012344;28;51077;-38
2021/10/08 03:34:06;;;;;;;;;3.00;3.00;;;;;21.25;46.63;102415.88;4997019;28;51041;-38
2021/10/08 03:39:07;;;;;;;;;4.00;3.00;;;;;21.26;46.80;102414.88;5005504;28;51638;-48
2021/10/08 03:41:34;;;;;;;;;2.25;2.25;;;;;21.26;46.47;102419.53;5010944;28;51023;-42
2021/10/08 03:44:02;;;;;;;;;3.75;3.00;;;;;21.25;46.53;102423.28;5015575;28;51335;-41
2021/10/08 03:46:32;;;;;;;;;4.00;4.00;;;;;21.25;46.27;102417.78;5016567;28;51093;-40
2021/10/08 03:51:34;;;;;;;;;3.00;3.00;;;;;21.24;46.41;102419.69;5009174;28;51048;-41
2021/10/08 03:54:01;;;;;;;;;3.00;3.00;;;;;21.25;46.88;102412.25;4979778;28;51092;-41
2021/10/08 03:56:28;;;;;;;;;2.75;2.25;;;;;21.23;46.90;102415.22;4997369;28;51138;-42
2021/10/08 03:58:54;;;;;;;;;2.50;2.50;;;;;21.23;46.89;102420.72;4996739;28;51870;-41
2021/10/08 04:01:20;;;;;;;;;3.00;2.00;;;;;21.23;47.06;102420.72;5005271;28;51091;-40
2021/10/08 04:03:46;;;;;;;;;3.75;2.25;;;;;21.22;46.49;102424.53;4996569;28;51134;-41
2021/10/08 04:06:11;;;;;;;;;3.00;3.00;;;;;21.22;46.45;102416.25;4996974;28;50926;-40
2021/10/08 04:08:37;;;;;;;;;1.25;1.25;;;;;21.22;46.93;102427.28;4996658;28;51677;-40
2021/10/08 04:11:02;;;;;;;;;4.00;4.00;;;;;21.22;46.65;102424.53;5003635;28;51134;-40
2021/10/08 04:13:27;;;;;;;;;2.00;2.00;;;;;21.22;46.70;102430.03;4997916;28;51065;-40
2021/10/08 04:15:53;;;;;;;;;3.75;2.50;;;;;21.22;46.54;102432.78;5003153;28;51204;-40
2021/10/08 04:18:18;;;;;;;;;2.00;2.00;;;;;21.22;46.96;102427.28;5002932;28;51581;-41
2021/10/08 04:20:44;;;;;;;;;3.25;3.25;;;;;21.22;46.58;102426.44;5000566;28;51024;-40
2021/10/08 04:23:09;;;;;;;;;4.25;3.75;;;;;21.22;47.01;102429.19;5001842;28;51080;-41
2021/10/08 04:25:35;;;;;;;;;5.25;3.00;;;;;21.23;46.78;102426.25;5001445;28;51060;-40
2021/10/08 04:28:00;;;;;;;;;5.50;3.00;;;;;21.22;46.52;102432.78;5013430;28;50997;-40
2021/10/08 04:30:26;;;;;;;;;4.75;3.50;;;;;21.22;47.08;102424.53;5006936;28;51120;-41
2021/10/08 04:32:52;;;;;;;;;6.25;4.50;;;;;21.22;47.10;102429.19;5001149;28;51018;-40
2021/10/08 04:35:18;;;;;;;;;5.00;4.50;;;;;21.23;46.98;102437.25;5005447;28;51085;-41
2021/10/08 04:37:43;;;;;;;;;4.00;4.00;;;;;21.22;47.07;102435.56;5009978;28;50902;-41
2021/10/08 04:40:09;;;;;;;;;5.25;4.25;;;;;21.23;46.49;102429.00;5007233;28;51108;-41
2021/10/08 04:42:35;;;;;;;;;4.00;4.00;;;;;21.23;46.94;102430.91;5017108;28;51129;-41
2021/10/08 04:45:01;;;;;;;;;6.00;4.00;;;;;21.22;46.98;102427.28;5002889;28;51095;-41
2021/10/08 04:47:26;;;;;;;;;4.00;4.00;;;;;21.22;46.41;102430.03;5006330;28;52140;-41
2021/10/08 04:49:52;;;;;;;;;5.75;5.00;;;;;21.23;46.43;102426.25;5010596;28;51026;-39
2021/10/08 04:52:17;;;;;;;;;4.00;4.00;;;;;21.22;46.97;102435.56;5002804;28;51046;-40
2021/10/08 04:54:43;;;;;;;;;5.75;4.00;;;;;21.22;46.47;102435.56;5010317;28;51048;-39
2021/10/08 04:57:08;;;;;;;;;3.50;3.00;;;;;21.22;46.55;102427.28;5013428;28;51701;-39
2021/10/08 04:59:34;;;;;;;;;6.25;4.00;;;;;21.23;46.99;102430.91;5009883;28;51518;-38
2021/10/08 05:02:00;;;;;;;;;5.00;2.75;;;;;21.21;46.36;102439.34;5008272;28;51082;-38
2021/10/08 05:04:25;;;;;;;;;7.50;4.00;;;;;21.21;46.91;102444.88;5014164;28;51302;-39
2021/10/08 05:06:51;;;;;;;;;6.00;4.00;;;;;21.22;47.02;102440.22;5015242;28;52286;-39
2021/10/08 05:09:16;;;;;;;;;8.00;6.25;;;;;21.22;46.76;102440.22;5013334;28;50957;-39
2021/10/08 05:11:41;;;;;;;;;7.75;6.75;;;;;21.20;46.42;102440.41;5011948;28;51226;-39
2021/10/08 05:14:07;;;;;;;;;9.25;9.25;;;;;21.20;45.61;102440.41;5008231;28;51266;-39
2021/10/08 05:16:32;;;;;;;;;14.00;11.50;;;;;21.19;45.46;102444.22;5009039;28;51879;-39
2021/10/08 05:18:58;;;;;;;;;11.50;10.75;;;;;21.17;45.82;102439.94;5007330;28;51227;-39
2021/10/08 05:21:23;;;;;;;;;14.75;12.00;;;;;21.15;45.24;102448.38;5001700;28;50929;-40
2021/10/08 05:23:48;;;;;;;;;16.00;12.25;;;;;21.14;45.61;102448.56;5011747;28;51304;-39
2021/10/08 05:26:14;;;;;;;;;13.00;12.50;;;;;21.12;45.55;102445.13;5013533;28;50969;-39
2021/10/08 05:28:39;;;;;;;;;12.50;11.50;;;;;21.08;44.90;102439.16;5014958;28;51053;-40
2021/10/08 05:31:08;;;;;;;;;11.75;10.50;;;;;21.07;45.11;102451.22;5012010;28;51158;-40
2021/10/08 05:33:33;;;;;;;;;14.75;12.25;;;;;21.05;45.12;102445.06;5018460;28;51208;-40
2021/10/08 05:35:59;;;;;;;;;12.75;11.50;;;;;21.03;45.15;102449.88;5017702;28;51016;-40
2021/10/08 05:38:24;;;;;;;;;16.75;14.50;;;;;21.01;44.92;102444.56;5013059;28;50966;-40
2021/10/08 05:40:52;;;;;;;;;15.50;14.00;;;;;20.99;44.79;102451.31;5002869;28;51065;-40
2021/10/08 05:43:19;;;;;;;;;15.25;11.25;;;;;20.95;44.89;102438.97;5007423;28;51338;-39
2021/10/08 05:45:44;;;;;;;;;12.75;12.00;;;;;20.94;45.27;102443.59;5008108;28;52603;-40
2021/10/08 05:48:10;;;;;;;;;13.00;8.75;;;;;20.92;45.20;102436.56;5006086;28;51183;-40
2021/10/08 05:50:36;;;;;;;;;12.50;8.00;;;;;20.91;45.45;102446.72;5012120;28;51225;-40
2021/10/08 05:53:02;;;;;;;;;12.50;9.50;;;;;20.91;45.88;102443.09;5007954;28;51005;-41
2021/10/08 05:55:27;;;;;;;;;8.00;7.75;;;;;20.91;45.66;102451.38;5009337;28;51940;-41
2021/10/08 05:57:53;;;;;;;;;8.00;8.00;;;;;20.91;45.61;102448.63;5003602;28;51213;-42
2021/10/08 06:00:18;;;;;;;;;10.25;8.25;;;;;20.89;45.95;102448.81;5014806;28;51631;-42
2021/10/08 06:02:43;;;;;;;;;9.25;9.00;;;;;20.90;45.86;102447.75;5009651;28;51112;-41
2021/10/08 06:05:09;;;;;;;;;9.75;8.25;;;;;20.91;46.18;102451.38;5001074;28;51717;-41
2021/10/08 06:07:34;;;;;;;;;8.25;7.25;;;;;20.92;45.93;102450.31;5010840;28;51188;-41
2021/10/08 06:10:00;;;;;;;;;7.00;6.50;;;;;20.91;46.24;102454.97;5013234;28;51172;-40
2021/10/08 06:12:25;;;;;;;;;11.00;9.50;;;;;20.91;45.96;102457.75;5002425;28;51045;-40
2021/10/08 06:14:50;;;;;;;;;8.75;7.25;;;;;20.92;46.13;102458.59;5017518;28;51009;-40
2021/10/08 06:17:16;;;;;;;;;11.75;8.25;;;;;20.93;46.17;102463.06;5003897;28;51094;-40
2021/10/08 06:19:42;;;;;;;;;8.50;7.25;;;;;20.93;45.92;102463.06;5008682;28;51117;-38
2021/10/08 06:22:08;;;;;;;;;7.75;7.25;;;;;20.94;46.04;102457.34;5007709;28;51038;-38
2021/10/08 06:24:34;;;;;;;;;11.50;8.00;;;;;20.94;46.54;102465.63;5005879;28;51363;-38
2021/10/08 06:26:59;;;;;;;;;9.25;8.25;;;;;20.95;46.67;102472.00;5006219;28;51373;-40
2021/10/08 06:29:24;;;;;;;;;9.50;7.25;;;;;20.95;46.31;102472.00;5008601;28;51049;-43
2021/10/08 06:31:50;;;;;;;;;9.50;7.00;;;;;20.95;46.10;102467.38;5001987;28;51090;-38
2021/10/08 06:34:15;;;;;;;;;8.75;8.75;;;;;20.97;46.65;102472.69;5009597;28;50878;-38
2021/10/08 06:36:41;;;;;;;;;7.25;7.00;;;;;20.99;46.52;102478.84;5004225;28;50987;-38
2021/10/08 06:39:06;;;;;;;;;8.50;6.25;;;;;20.99;47.35;102474.19;5003942;28;51087;-38
2021/10/08 06:41:32;;;;;;;;;8.75;7.50;;;;;21.01;47.30;102479.50;5001886;28;51140;-39
2021/10/08 06:43:57;;;;;;;;;13.25;7.75;;;;;21.02;47.19;102483.97;5002207;28;51906;-38
2021/10/08 06:46:23;;;;;;;;;9.00;8.00;;;;;21.03;47.11;102483.78;5015918;28;51001;-39
2021/10/08 06:48:48;;;;;;;;;7.50;6.75;;;;;21.04;47.43;102481.88;5008975;28;51168;-38
2021/10/08 06:51:14;;;;;;;;;8.25;7.50;;;;;21.05;47.03;102483.63;5003246;28;51100;-38
2021/10/08 06:53:40;;;;;;;;;12.50;9.25;;;;;21.06;47.53;102488.09;5004290;28;50930;-39
2021/10/08 06:56:05;;;;;;;;;9.00;7.50;;;;;21.07;47.36;102487.03;4997925;28;51073;-39
2021/10/08 06:58:31;;;;;;;;;8.75;8.00;;;;;21.08;47.28;102488.75;5002871;28;51268;-38
2021/10/08 07:00:56;;;;;;;;;10.25;7.00;;;;;21.10;47.13;102491.31;5003473;28;51327;-39
2021/10/08 07:03:22;;;;;;;;;11.25;8.00;;;;;21.11;46.88;102493.88;5011552;28;51612;-39
2021/10/08 07:05:48;;;;;;;;;10.50;9.75;;;;;21.10;47.49;102489.41;5016974;28;50940;-39
2021/10/08 07:08:13;;;;;;;;;9.25;8.00;;;;;21.10;47.49;102496.84;5018128;28;50942;-39
2021/10/08 07:10:39;;;;;;;;;13.75;10.75;;;;;21.11;46.92;102499.41;5017362;28;51076;-39
2021/10/08 07:13:07;;;;;;;;;8.25;7.00;;;;;21.12;47.22;102503.84;5016746;28;51943;-39
2021/10/08 07:15:32;;;;;;;;;9.25;7.25;;;;;21.12;47.12;102503.00;5017085;28;51190;-39
2021/10/08 07:17:58;;;;;;;;;9.00;8.50;;;;;21.12;46.88;102505.75;5017140;28;51037;-38
2021/10/08 07:20:26;;;;;;;;;9.25;8.00;;;;;21.12;46.51;102506.63;5016949;28;51021;-39
2021/10/08 07:22:52;;;;;;;;;8.75;7.00;;;;;21.11;46.51;102507.66;4998186;28;51034;-39
2021/10/08 07:25:21;;;;;;;;;8.25;8.25;;;;;21.10;46.83;102511.47;4997497;28;51145;-39
2021/10/08 07:27:46;;;;;;;;;8.75;8.25;;;;;21.10;46.54;102505.09;5013205;28;50909;-39
2021/10/08 07:30:13;;;;;;;;;12.00;9.75;;;;;21.11;46.37;102518.69;5016380;28;51097;-38
2021/10/08 07:32:38;;;;;;;;;8.50;8.50;;;;;21.10;46.39;102511.47;5016507;28;51065;-43
2021/10/08 07:35:05;;;;;;;;;10.75;9.75;;;;;21.11;46.50;102512.31;5017005;28;51223;-43
2021/10/08 07:37:31;;;;;;;;;9.00;9.00;;;;;21.10;46.63;102513.38;4999324;28;51218;-44
2021/10/08 07:39:57;;;;;;;;;10.75;9.50;;;;;21.11;46.17;102521.44;5012505;28;51362;-42
2021/10/08 07:42:23;;;;;;;;;7.75;6.75;;;;;21.10;46.42;102513.38;4995792;28;52787;-39
2021/10/08 07:44:49;;;;;;;;;10.25;8.75;;;;;21.11;46.46;102515.06;5012943;28;51388;-38
2021/10/08 07:47:15;;;;;;;;;11.50;9.25;;;;;21.11;46.01;102520.59;5017143;28;51202;-39
2021/10/08 07:49:41;;;;;;;;;8.75;8.75;;;;;21.11;46.28;102515.94;5014090;28;52414;-39
2021/10/08 07:52:07;;;;;;;;;9.25;9.25;;;;;21.11;46.05;102515.06;4996723;28;52158;-39
2021/10/08 07:54:32;;;;;;;;;10.75;9.00;;;;;21.10;46.10;102514.22;5004488;28;50895;-39
2021/10/08 07:56:58;;;;;;;;;18.00;9.75;;;;;21.09;45.99;102509.75;5016151;28;51131;-39
2021/10/08 07:59:23;;;;;;;;;13.00;13.00;;;;;21.09;45.63;102518.03;5014546;28;51053;-42
2021/10/08 08:01:48;;;;;;;;;8.50;8.25;;;;;21.10;45.61;102513.38;5016678;28;51576;-42
2021/10/08 08:04:14;;;;;;;;;14.50;11.50;;;;;21.08;45.97;102507.19;5003284;28;51125;-43
2021/10/08 08:06:39;;;;;;;;;9.75;9.75;;;;;21.07;45.98;102509.09;4998882;28;51128;-39
2021/10/08 08:09:05;;;;;;;;;9.25;9.00;;;;;21.08;45.73;102508.03;5000439;28;51295;-38
2021/10/08 08:11:30;;;;;;;;;13.00;13.00;;;;;21.08;45.75;102508.03;4982701;28;51045;-39
2021/10/08 08:13:56;;;;;;;;;11.25;10.50;;;;;21.08;45.83;102502.53;5009263;28;51143;-44
2021/10/08 08:16:21;;;;;;;;;14.25;12.75;;;;;21.08;45.53;102508.03;5020178;28;51071;-43
2021/10/08 08:18:47;;;;;;;;;13.25;12.50;;;;;21.07;46.08;102503.59;5019908;28;50931;-39
2021/10/08 08:21:12;;;;;;;;;15.75;11.75;;;;;21.07;46.12;102514.59;5007368;28;51418;-43
2021/10/08 08:23:38;;;;;;;;;13.75;12.50;;;;;21.07;46.06;102508.25;5006311;28;50938;-50
2021/10/08 08:26:03;;;;;;;;;12.75;11.00;;;;;21.06;46.39;102510.13;5005082;28;51123;-45
2021/10/08 08:28:29;;;;;;;;;14.50;12.50;;;;;21.07;46.41;102511.84;5010374;28;51106;-42
2021/10/08 08:30:55;;;;;;;;;18.75;13.00;;;;;21.09;46.73;102508.91;4994709;28;52995;-41
2021/10/08 08:33:21;;;;;;;;;15.25;10.50;;;;;21.11;46.94;102512.31;5001990;28;51116;-42
2021/10/08 08:35:47;;;;;;;;;16.75;15.25;;;;;21.12;47.05;102508.50;5005311;28;51258;-39
2021/10/08 08:38:12;;;;;;;;;12.00;11.00;;;;;21.15;46.98;102511.75;4986394;28;51130;-42
2021/10/08 08:40:38;;;;;;;;;16.50;13.50;;;;;21.18;47.31;102503.13;5010382;28;53177;-39
2021/10/08 08:43:03;;;;;;;;;15.25;14.25;;;;;21.22;47.29;102506.34;5001842;28;51182;-39
2021/10/08 08:45:31;;;;;;;;;13.50;11.75;;;;;21.25;47.28;102506.81;5003729;28;51097;-40
2021/10/08 08:48:08;;;;;;;;;11.50;11.50;;;;;21.27;47.37;102509.44;5008868;28;51003;-40
2021/10/08 08:50:37;;;;;;;;;13.25;11.25;;;;;21.28;46.84;102501.00;5007121;28;51302;-38
2021/10/08 08:53:02;;;;;;;;;14.00;12.00;;;;;21.31;46.87;102500.59;5007267;28;51457;-39
2021/10/08 08:55:28;;;;;;;;;13.00;11.75;;;;;21.33;47.58;102505.94;5006382;28;51468;-40
2021/10/08 08:57:53;;;;;;;;;15.25;12.25;;;;;21.36;46.92;102507.44;5005659;28;51337;-39
2021/10/08 09:00:20;;;;;;;;;14.75;12.25;;;;;21.40;47.34;102500.53;5006644;28;52608;-40
2021/10/08 09:02:55;;;;;;;;;13.25;9.25;;;;;21.44;47.06;102501.84;5000668;28;51421;-39
2021/10/08 09:05:30;;;;;;;;;12.25;12.00;;;;;21.49;47.35;102500.25;5014689;28;50979;-41
2021/10/08 09:07:58;;;;;;;;;11.25;11.00;;;;;21.54;47.16;102499.66;5004396;28;51159;-39
2021/10/08 09:10:31;;;;;;;;;13.00;10.50;;;;;21.59;46.75;102498.06;5009200;28;50987;-41
2021/10/08 09:12:57;;;;;;;;;9.75;9.75;;;;;21.64;46.78;102494.72;5003048;28;52518;-40
2021/10/08 09:15:25;;;;;;;;;10.00;10.00;;;;;21.69;46.51;102494.16;5009115;28;51212;-40
2021/10/08 09:18:11;;;;;;;;;12.25;9.50;;;;;21.74;46.52;102500.81;5008259;28;52177;-40
2021/10/08 09:20:38;;;;;;;;;9.50;6.75;;;;;21.79;46.52;102492.84;4986964;28;54036;-40
2021/10/08 09:23:06;;;;;;;;;10.00;9.00;;;;;21.84;46.94;102493.09;5007147;28;51121;-40
2021/10/08 09:25:34;;;;;;;;;9.75;8.50;;;;;21.90;46.36;102497.84;5009739;28;51231;-41
2021/10/08 09:28:02;;;;;;;;;11.00;8.50;;;;;21.95;46.57;102494.50;5007015;28;52023;-41
2021/10/08 09:30:44;;;;;;;;;8.50;7.50;;;;;22.01;46.15;102490.13;5005579;28;51108;-39
2021/10/08 09:33:15;;;;;;;;;7.75;7.75;;;;;22.06;46.40;102490.41;5004926;28;51189;-40
2021/10/08 09:35:42;;;;;;;;;7.25;6.50;;;;;22.09;45.89;102482.63;5010321;28;51122;-41
2021/10/08 09:38:13;;;;;;;;;10.50;8.25;;;;;22.14;45.82;102476.53;5008919;28;51382;-40
2021/10/08 09:40:48;;;;;;;;;15.25;10.00;;;;;22.16;46.38;102479.94;5003569;28;51036;-41
2021/10/08 09:43:34;;;;;;;;;8.50;8.50;;;;;22.19;45.73;102474.88;5002129;28;51392;-39
2021/10/08 09:46:00;;;;;;;;;7.75;7.75;;;;;22.23;45.56;102474.50;5004190;28;51129;-40
2021/10/08 09:48:36;;;;;;;;;9.00;9.00;;;;;22.25;45.82;102462.22;5003165;28;51236;-40
2021/10/08 09:51:01;;;;;;;;;8.50;6.75;;;;;22.28;45.93;102467.34;5006039;28;51597;-40
2021/10/08 09:53:28;;;;;;;;;7.25;7.25;;;;;22.30;46.04;102462.50;5011229;28;51032;-40
2021/10/08 09:55:54;;;;;;;;;12.50;11.25;;;;;22.32;45.71;102465.06;5009914;28;51181;-40
2021/10/08 09:58:21;;;;;;;;;8.25;8.25;;;;;22.33;45.81;102462.09;5009381;28;51165;-40
2021/10/08 10:01:03;;;;;;;;;8.75;7.75;;;;;22.35;45.65;102462.75;5006044;28;51618;-40
2021/10/08 10:03:30;;;;;;;;;7.50;6.00;;;;;22.37;45.38;102451.50;5008371;28;51031;-39
2021/10/08 10:06:01;;;;;;;;;6.00;6.00;;;;;22.37;45.64;102457.88;5008276;28;51007;-40
2021/10/08 10:08:27;;;;;;;;;8.00;8.00;;;;;22.38;45.52;102445.78;5010663;28;51130;-40
2021/10/08 10:10:54;;;;;;;;;7.00;6.25;;;;;22.40;45.13;102448.34;4994634;28;53182;-39
2021/10/08 10:13:21;;;;;;;;;10.50;6.75;;;;;22.40;45.25;102451.09;5006284;28;51514;-40
2021/10/08 10:15:48;;;;;;;;;7.25;6.75;;;;;22.41;45.35;102441.78;4993285;28;51584;-40
2021/10/08 10:18:19;;;;;;;;;8.50;7.25;;;;;22.43;45.30;102447.97;5005148;28;51127;-40
2021/10/08 10:20:48;;;;;;;;;7.50;7.50;;;;;22.44;45.59;102438.63;4999260;28;51881;-40
2021/10/08 10:23:15;;;;;;;;;11.00;7.00;;;;;22.45;45.14;102437.56;5004049;28;51330;-40
2021/10/08 10:25:41;;;;;;;;;6.00;6.00;;;;;22.46;45.43;102434.63;5007832;28;51155;-40
2021/10/08 10:28:07;;;;;;;;;6.75;6.00;;;;;22.46;45.59;102442.91;5006276;28;51257;-40
2021/10/08 10:30:34;;;;;;;;;8.25;4.75;;;;;22.47;45.26;102436.31;5004580;28;51346;-40
2021/10/08 10:33:01;;;;;;;;;6.25;5.50;;;;;22.48;44.99;102440.78;4982856;28;51243;-40
2021/10/08 10:35:46;;;;;;;;;4.50;4.50;;;;;22.48;45.34;102449.06;4999473;28;51044;-40
2021/10/08 10:38:27;;;;;;;;;7.00;7.00;;;;;22.48;45.09;102440.78;5006859;28;51232;-40
2021/10/08 10:41:07;;;;;;;;;7.75;6.75;;;;;22.48;44.64;102435.25;5001389;28;51755;-41
2021/10/08 10:43:38;;;;;;;;;8.00;6.75;;;;;22.48;44.70;102435.25;5011461;28;51206;-46
2021/10/08 10:46:49;;;;;;;;;5.25;5.25;;;;;22.50;44.63;102445.25;4989405;28;51105;-40
2021/10/08 10:49:33;;;;;;;;;4.50;4.25;;;;;22.51;44.50;102445.09;4998609;28;51575;-43
2021/10/08 10:51:58;;;;;;;;;7.50;5.75;;;;;22.53;44.55;102431.06;5004978;28;51011;-45
2021/10/08 10:57:07;;;;;;;;;8.00;7.00;;;;;22.57;43.88;102432.38;4998028;28;51002;-42
2021/10/08 10:59:37;;;;;;;;;8.25;7.00;;;;;22.57;44.01;102424.94;5005564;28;51065;-41
2021/10/08 11:02:02;;;;;;;;;1.50;1.00;;;;;22.59;43.88;102431.13;5010802;28;51316;-41
2021/10/08 11:04:28;;;;;;;;;6.00;6.00;;;;;22.58;43.94;102429.41;5005929;28;51202;-40
2021/10/08 11:07:10;;;;;;;;;3.00;3.00;;;;;22.60;44.11;102416.25;5012607;28;51106;-41
2021/10/08 11:09:40;;;;;;;;;5.75;5.00;;;;;22.60;43.89;102430.06;5014873;28;51243;-45
2021/10/08 11:12:27;;;;;;;;;5.75;5.75;;;;;22.61;43.92;102419.88;5018463;28;50960;-38
2021/10/08 11:15:14;;;;;;;;;6.50;5.50;;;;;22.63;43.76;102434.34;5016486;28;51060;-38
2021/10/08 11:17:47;;;;;;;;;6.00;5.25;;;;;22.63;43.99;102418.63;5002320;28;51030;-38
2021/10/08 11:20:37;;;;;;;;;4.25;4.25;;;;;22.64;44.07;102416.72;4979342;28;51153;-38
2021/10/08 11:23:04;;;;;;;;;4.50;4.50;;;;;22.64;43.93;102417.59;4978689;28;52337;-38
2021/10/08 11:25:45;;;;;;;;;4.00;4.00;;;;;22.66;43.77;102414.63;4996880;28;51036;-39
2021/10/08 11:28:11;;;;;;;;;4.75;4.75;;;;;22.65;43.78;102410.16;5014964;28;51441;-39